Time;durP1;ratioP1;P1;durP2;ratioP2;P2;SDS_P1;SDS_P2;PMS_P1;PMS_P2;Temp;Humidity;BMP_temperature;BMP_pressure;BME280_temperature;BME280_humidity;BME280_pressure;Samples;Min_cycle;Max_cycle;Signal;HPM_P1;HPM_P2
2021/03/03 00:01:22;;;;;;;29.13;16.90;;;7.80;86.00;;;;;;5036577;28;20064;-70
2021/03/03 00:04:30;;;;;;;40.67;18.92;;;7.90;86.70;;;;;;5050167;28;20056;-70
2021/03/03 00:07:53;;;;;;;409.67;116.65;;;7.80;86.60;;;;;;5050467;28;20048;-70
2021/03/03 00:10:57;;;;;;;675.22;210.57;;;7.70;87.70;;;;;;5047681;28;20048;-70
2021/03/03 00:14:01;;;;;;;510.77;144.85;;;7.60;88.70;;;;;;5041143;28;20044;-70
2021/03/03 00:17:06;;;;;;;368.60;102.65;;;7.40;89.50;;;;;;5034178;28;20060;-69
2021/03/03 00:20:10;;;;;;;460.98;135.00;;;7.40;90.10;;;;;;5044437;28;20040;-70
2021/03/03 00:23:14;;;;;;;462.38;136.55;;;7.20;91.00;;;;;;5037843;28;20052;-70
2021/03/03 00:26:18;;;;;;;287.52;90.38;;;7.10;91.70;;;;;;5049917;28;20037;-70
2021/03/03 00:29:22;;;;;;;96.45;33.95;;;7.00;92.50;;;;;;5050353;28;20431;-70
2021/03/03 00:32:26;;;;;;;108.43;37.15;;;6.90;92.40;;;;;;5050269;28;20392;-70
2021/03/03 00:35:31;;;;;;;188.10;50.90;;;6.90;93.40;;;;;;5050704;28;20043;-69
2021/03/03 00:38:35;;;;;;;138.80;44.83;;;6.90;93.80;;;;;;5038366;28;20507;-70
2021/03/03 00:41:38;;;;;;;134.68;43.92;;;6.80;93.80;;;;;;5049366;28;20053;-70
2021/03/03 00:44:43;;;;;;;172.77;57.03;;;6.80;94.00;;;;;;5049441;28;20052;-70
2021/03/03 00:47:47;;;;;;;73.47;29.30;;;6.70;94.10;;;;;;5050312;28;20080;-70
2021/03/03 00:50:52;;;;;;;65.80;26.85;;;6.70;94.20;;;;;;5049409;28;20032;-69
2021/03/03 00:53:56;;;;;;;105.28;33.65;;;6.50;94.40;;;;;;5049297;28;20391;-69
2021/03/03 00:57:01;;;;;;;173.77;52.17;;;6.50;94.70;;;;;;5036206;28;20047;-69
2021/03/03 01:00:07;;;;;;;358.42;106.18;;;6.50;94.70;;;;;;5048668;28;20052;-69
2021/03/03 01:03:11;;;;;;;254.50;74.65;;;6.60;94.60;;;;;;5049017;28;20044;-69
2021/03/03 01:06:19;;;;;;;39.00;16.83;;;6.60;94.70;;;;;;5049206;28;20047;-70
2021/03/03 01:09:23;;;;;;;27.83;12.07;;;6.70;94.90;;;;;;5047922;28;20060;-70
2021/03/03 01:12:28;;;;;;;17.35;8.98;;;6.80;94.70;;;;;;5050277;28;20040;-69
2021/03/03 01:15:33;;;;;;;16.63;8.35;;;6.80;94.90;;;;;;5048973;28;20523;-70
2021/03/03 01:18:43;;;;;;;25.13;11.60;;;6.90;94.90;;;;;;5036488;28;20052;-70
2021/03/03 01:21:47;;;;;;;21.42;10.50;;;6.90;94.80;;;;;;5048830;28;20680;-70
2021/03/03 01:24:51;;;;;;;23.33;11.77;;;6.90;94.70;;;;;;5048870;28;20055;-70
2021/03/03 01:27:56;;;;;;;31.08;15.57;;;6.90;94.70;;;;;;5049504;28;20056;-69
2021/03/03 01:31:00;;;;;;;37.47;17.40;;;6.90;94.90;;;;;;5049664;28;20412;-70
2021/03/03 01:34:04;;;;;;;36.33;19.33;;;6.70;95.60;;;;;;5037244;28;20073;-70
2021/03/03 01:37:08;;;;;;;97.03;33.75;;;6.60;96.30;;;;;;5049339;28;20036;-70
2021/03/03 01:40:13;;;;;;;179.75;53.70;;;6.50;97.30;;;;;;5051623;28;20404;-70
2021/03/03 01:43:18;;;;;;;350.67;98.47;;;6.30;97.80;;;;;;5053265;28;20047;-69
2021/03/03 01:46:23;;;;;;;208.40;63.17;;;6.20;98.20;;;;;;5053263;28;20116;-69
2021/03/03 01:49:27;;;;;;;156.20;51.05;;;6.10;99.20;;;;;;5041535;28;20545;-70
2021/03/03 01:52:33;;;;;;;199.63;58.05;;;6.10;99.50;;;;;;5052890;28;20040;-70
2021/03/03 01:55:37;;;;;;;94.18;36.08;;;6.00;99.70;;;;;;5053006;28;20068;-70
2021/03/03 01:58:41;;;;;;;73.70;30.77;;;5.90;99.90;;;;;;5053032;28;20052;-69
2021/03/03 02:01:45;;;;;;;128.77;42.38;;;5.90;99.90;;;;;;5052422;28;20535;-70
2021/03/03 02:04:52;;;;;;;160.88;48.70;;;5.90;99.90;;;;;;5052676;28;20048;-70
2021/03/03 02:08:25;;;;;;;65.70;25.65;;;5.80;99.90;;;;;;5052813;28;20044;-69
2021/03/03 02:11:41;;;;;;;73.20;26.48;;;5.70;99.90;;;;;;5052388;28;20036;-70
2021/03/03 02:14:53;;;;;;;44.83;22.42;;;5.70;99.90;;;;;;5052871;28;20048;-69
2021/03/03 02:18:01;;;;;;;59.33;24.15;;;5.70;99.90;;;;;;5052555;28;20048;-70
2021/03/03 02:21:39;;;;;;;46.85;21.65;;;5.80;99.90;;;;;;5052520;28;20503;-70
2021/03/03 02:25:21;;;;;;;78.97;29.08;;;5.80;99.90;;;;;;5051249;28;20044;-70
2021/03/03 02:28:25;;;;;;;123.55;42.10;;;5.80;99.90;;;;;;5051675;28;20044;-70
2021/03/03 02:31:30;;;;;;;68.57;26.52;;;5.80;99.90;;;;;;5050104;28;20400;-69
2021/03/03 02:34:36;;;;;;;76.97;27.00;;;5.80;99.90;;;;;;5051010;28;20068;-70
2021/03/03 02:37:40;;;;;;;44.03;19.77;;;5.80;99.90;;;;;;5052357;28;20383;-69
2021/03/03 02:40:46;;;;;;;138.88;43.38;;;5.80;99.90;;;;;;5038279;28;20056;-69
2021/03/03 02:43:51;;;;;;;193.98;57.10;;;5.80;99.90;;;;;;5051854;28;20051;-69
2021/03/03 02:46:55;;;;;;;121.55;38.28;;;5.80;99.90;;;;;;5052059;28;20044;-69
2021/03/03 02:49:59;;;;;;;80.45;29.73;;;5.70;99.90;;;;;;5043669;28;20036;-69
2021/03/03 02:53:04;;;;;;;66.97;26.05;;;5.70;99.90;;;;;;5049324;28;20040;-70
2021/03/03 02:56:09;;;;;;;108.20;34.13;;;5.60;99.90;;;;;;5050769;28;20059;-70
2021/03/03 02:59:37;;;;;;;72.30;27.15;;;5.50;99.90;;;;;;5051526;28;20044;-70
2021/03/03 03:02:45;;;;;;;479.85;128.10;;;5.40;99.90;;;;;;5051874;28;20527;-70
2021/03/03 03:06:18;;;;;;;348.58;94.38;;;5.40;99.90;;;;;;5041666;28;20048;-69
2021/03/03 03:09:25;;;;;;;123.75;39.33;;;5.20;99.90;;;;;;5048233;28;20056;-70
2021/03/03 03:12:31;;;;;;;99.05;34.45;;;5.10;99.90;;;;;;5049657;28;20586;-69
2021/03/03 03:15:37;;;;;;;104.85;33.35;;;5.00;99.90;;;;;;5050629;28;20040;-70
2021/03/03 03:18:48;;;;;;;192.15;51.83;;;5.00;99.90;;;;;;5050838;28;20048;-70
2021/03/03 03:21:53;;;;;;;57.88;22.88;;;5.00;99.90;;;;;;5045963;28;20048;-70
2021/03/03 03:24:59;;;;;;;180.85;52.15;;;5.00;99.90;;;;;;5050049;28;20057;-70
2021/03/03 03:28:03;;;;;;;109.50;38.47;;;5.00;99.90;;;;;;5049360;28;20039;-70
2021/03/03 03:31:10;;;;;;;252.45;68.80;;;5.10;99.90;;;;;;5050436;28;20063;-70
2021/03/03 03:34:14;;;;;;;98.78;35.33;;;5.10;99.90;;;;;;5049716;28;20044;-69
2021/03/03 03:37:20;;;;;;;51.22;20.85;;;5.10;99.90;;;;;;5051220;28;20044;-69
2021/03/03 03:40:25;;;;;;;45.15;18.88;;;5.10;99.90;;;;;;5042755;28;20515;-70
2021/03/03 03:43:32;;;;;;;55.42;22.10;;;5.10;99.90;;;;;;5050662;28;20040;-69
2021/03/03 03:46:40;;;;;;;43.35;21.27;;;5.00;99.90;;;;;;5047036;28;20120;-71
2021/03/03 03:49:48;;;;;;;37.95;18.63;;;5.00;99.90;;;;;;5041739;28;20048;-70
2021/03/03 03:52:57;;;;;;;35.17;17.05;;;5.00;99.90;;;;;;5046294;28;20055;-70
2021/03/03 03:56:07;;;;;;;25.83;13.55;;;5.00;99.90;;;;;;5046563;28;20043;-70
2021/03/03 03:59:11;;;;;;;31.40;16.08;;;5.00;99.90;;;;;;5041279;28;20515;-70
2021/03/03 04:02:16;;;;;;;34.55;18.95;;;4.90;99.90;;;;;;5037774;28;20039;-70
2021/03/03 04:05:21;;;;;;;58.10;24.30;;;4.90;99.90;;;;;;5048921;28;20044;-70
2021/03/03 04:08:26;;;;;;;81.75;31.30;;;4.80;99.90;;;;;;5045607;28;20052;-70
2021/03/03 04:11:30;;;;;;;87.40;31.20;;;4.70;99.90;;;;;;5037178;28;20036;-70
2021/03/03 04:14:54;;;;;;;55.00;21.33;;;4.70;99.90;;;;;;5043462;28;20060;-68
2021/03/03 04:17:58;;;;;;;48.80;19.83;;;4.60;99.90;;;;;;5040460;28;20056;-71
2021/03/03 04:21:03;;;;;;;37.90;16.00;;;4.60;99.90;;;;;;5047816;28;20388;-70
2021/03/03 04:24:08;;;;;;;46.63;19.38;;;4.60;99.90;;;;;;5048825;28;20044;-71
2021/03/03 04:27:12;;;;;;;43.72;19.17;;;4.50;99.90;;;;;;5044641;28;20051;-71
2021/03/03 04:30:17;;;;;;;32.97;17.00;;;4.40;99.90;;;;;;5044447;28;20040;-70
2021/03/03 04:33:22;;;;;;;44.53;20.20;;;4.40;99.90;;;;;;5043731;28;20052;-70
2021/03/03 04:36:26;;;;;;;57.40;21.83;;;4.40;99.90;;;;;;5048765;28;20044;-68
2021/03/03 04:39:30;;;;;;;35.33;17.63;;;4.40;99.90;;;;;;5044906;28;20507;-69
2021/03/03 04:42:36;;;;;;;39.60;19.45;;;4.40;99.90;;;;;;5046360;28;20039;-70
2021/03/03 04:45:40;;;;;;;26.63;13.68;;;4.50;99.90;;;;;;5049206;28;20523;-70
2021/03/03 04:48:44;;;;;;;30.58;15.05;;;4.50;99.90;;;;;;5038699;28;20777;-70
2021/03/03 04:51:49;;;;;;;26.05;13.57;;;4.50;99.90;;;;;;5040187;28;20032;-70
2021/03/03 04:54:53;;;;;;;23.25;11.63;;;4.40;99.90;;;;;;5042386;28;20040;-70
2021/03/03 04:57:58;;;;;;;21.48;11.10;;;4.50;99.90;;;;;;5044547;28;20040;-70
2021/03/03 05:01:04;;;;;;;22.75;11.68;;;4.50;99.90;;;;;;5043318;28;20531;-70
2021/03/03 05:04:08;;;;;;;24.65;13.45;;;4.50;99.90;;;;;;5048761;28;20052;-70
2021/03/03 05:07:14;;;;;;;21.10;12.25;;;4.50;99.90;;;;;;5040535;28;20060;-70
2021/03/03 05:10:19;;;;;;;23.20;11.32;;;4.50;99.90;;;;;;5041706;28;20384;-70
2021/03/03 05:13:23;;;;;;;27.52;14.18;;;4.50;99.90;;;;;;5041867;28;20052;-69
2021/03/03 05:16:29;;;;;;;30.60;14.25;;;4.40;99.90;;;;;;5046520;28;20036;-70
2021/03/03 05:19:33;;;;;;;30.15;14.63;;;4.40;99.90;;;;;;5048145;28;20040;-69
2021/03/03 05:22:37;;;;;;;27.92;15.82;;;4.40;99.90;;;;;;5050015;28;20051;-70
2021/03/03 05:25:41;;;;;;;32.35;15.73;;;4.40;99.90;;;;;;5043018;28;20061;-70
2021/03/03 05:28:46;;;;;;;25.48;14.93;;;4.40;99.90;;;;;;5052009;28;20059;-70
2021/03/03 05:31:50;;;;;;;29.48;16.27;;;4.30;99.90;;;;;;5046115;28;20040;-70
2021/03/03 05:34:55;;;;;;;30.58;15.38;;;4.40;99.90;;;;;;5045708;28;20044;-70
2021/03/03 05:37:59;;;;;;;31.83;16.33;;;4.30;99.90;;;;;;5045954;28;20514;-70
2021/03/03 05:41:05;;;;;;;30.38;16.35;;;4.30;99.90;;;;;;5040100;28;20044;-70
2021/03/03 05:44:10;;;;;;;28.92;16.35;;;4.20;99.90;;;;;;5050362;28;20040;-70
2021/03/03 05:47:16;;;;;;;33.08;17.35;;;4.20;99.90;;;;;;5039016;28;20052;-70
2021/03/03 05:50:40;;;;;;;34.13;19.15;;;4.10;99.90;;;;;;5044091;28;20059;-70
2021/03/03 05:54:06;;;;;;;35.78;19.13;;;4.10;99.90;;;;;;5044620;28;20051;-70
2021/03/03 05:57:12;;;;;;;33.53;19.15;;;4.10;99.90;;;;;;5042583;28;20076;-70
2021/03/03 06:00:38;;;;;;;36.38;19.90;;;4.10;99.90;;;;;;5049442;28;20467;-70
2021/03/03 06:03:43;;;;;;;40.38;23.00;;;3.90;99.90;;;;;;5052586;28;20040;-70
2021/03/03 06:06:47;;;;;;;38.95;21.27;;;3.80;99.90;;;;;;5040569;28;20048;-70
2021/03/03 06:09:51;;;;;;;35.65;18.83;;;3.70;99.90;;;;;;5042021;28;20632;-71
2021/03/03 06:12:56;;;;;;;36.00;21.08;;;3.50;99.90;;;;;;5041489;28;20040;-70
2021/03/03 06:16:00;;;;;;;37.88;17.42;;;3.50;99.90;;;;;;5052629;28;20499;-70
2021/03/03 06:19:23;;;;;;;35.42;18.50;;;3.00;99.90;;;;;;5052333;28;20056;-70
2021/03/03 06:22:28;;;;;;;35.50;20.38;;;2.80;99.90;;;;;;5052263;28;20663;-70
2021/03/03 06:26:09;;;;;;;40.85;20.27;;;2.80;99.90;;;;;;5045179;28;20052;-70
2021/03/03 06:29:14;;;;;;;33.88;19.08;;;3.00;99.90;;;;;;5009362;28;20492;-70
2021/03/03 06:32:37;;;;;;;36.50;17.45;;;3.20;99.90;;;;;;5052074;28;20043;-70
2021/03/03 06:35:44;;;;;;;30.15;17.33;;;5.50;99.90;;;;;;5047817;28;20052;-70
2021/03/03 06:39:15;;;;;;;27.40;14.70;;;9.40;99.90;;;;;;5041252;28;20052;-70
2021/03/03 06:42:26;;;;;;;25.00;14.55;;;12.60;99.80;;;;;;5043436;28;20448;-71
2021/03/03 06:45:32;;;;;;;24.43;14.23;;;14.80;94.40;;;;;;5052191;28;20052;-70
2021/03/03 06:48:39;;;;;;;31.83;15.25;;;16.50;89.90;;;;;;5044479;28;20059;-69
2021/03/03 06:51:47;;;;;;;25.48;15.88;;;17.10;82.70;;;;;;5051325;28;20048;-69
2021/03/03 06:55:00;;;;;;;25.25;16.35;;;17.90;78.20;;;;;;5050872;28;20036;-69
2021/03/03 06:58:26;;;;;;;25.20;15.77;;;18.30;75.10;;;;;;5051225;28;20043;-70
2021/03/03 07:01:49;;;;;;;27.25;17.50;;;18.60;71.60;;;;;;5051485;28;20044;-69
2021/03/03 07:04:57;;;;;;;24.38;17.08;;;18.30;70.70;;;;;;5044211;28;20048;-70
2021/03/03 07:08:02;;;;;;;23.17;15.90;;;18.30;70.10;;;;;;5041507;28;20051;-69
2021/03/03 07:11:29;;;;;;;30.17;17.65;;;18.70;69.60;;;;;;5038954;28;20052;-70
2021/03/03 07:14:33;;;;;;;25.48;18.02;;;19.20;66.90;;;;;;5039829;28;20048;-69
2021/03/03 07:17:57;;;;;;;26.80;16.73;;;18.70;65.30;;;;;;5050692;28;20028;-69
2021/03/03 07:21:34;;;;;;;28.85;17.67;;;19.30;65.40;;;;;;5050738;28;20372;-69
2021/03/03 07:25:16;;;;;;;23.75;16.38;;;20.80;63.40;;;;;;5037436;28;20364;-69
2021/03/03 07:28:20;;;;;;;24.55;17.33;;;20.50;60.90;;;;;;5050853;28;20056;-69
2021/03/03 07:31:24;;;;;;;23.27;16.90;;;18.60;62.60;;;;;;5050101;28;20392;-70
2021/03/03 07:34:30;;;;;;;19.88;15.80;;;18.30;64.00;;;;;;5049926;28;20044;-69
2021/03/03 07:38:20;;;;;;;21.85;15.20;;;18.70;63.20;;;;;;5047461;28;20376;-69
2021/03/03 07:41:45;;;;;;;20.17;13.73;;;17.90;64.30;;;;;;5053083;28;20415;-69
2021/03/03 07:45:00;;;;;;;21.83;15.25;;;17.90;65.10;;;;;;5053644;28;20032;-70
2021/03/03 07:48:46;;;;;;;17.48;14.10;;;18.70;64.10;;;;;;5053452;28;20040;-69
2021/03/03 07:51:50;;;;;;;23.83;14.75;;;19.10;62.50;;;;;;5040555;28;20048;-69
2021/03/03 07:54:58;;;;;;;20.92;13.98;;;18.70;63.20;;;;;;5068564;28;20063;-69
2021/03/03 07:58:06;;;;;;;24.77;14.32;;;19.00;63.30;;;;;;5053225;28;20491;-70
2021/03/03 08:01:30;;;;;;;20.83;14.55;;;20.30;62.10;;;;;;5053537;28;20376;-70
2021/03/03 08:04:36;;;;;;;18.45;13.55;;;20.90;61.10;;;;;;5053726;28;20056;-70
2021/03/03 08:08:16;;;;;;;19.17;13.20;;;21.30;60.50;;;;;;5040251;28;20047;-69
2021/03/03 08:11:28;;;;;;;22.73;14.07;;;21.30;60.00;;;;;;5043828;28;20052;-70
2021/03/03 08:14:32;;;;;;;26.08;16.30;;;21.50;58.70;;;;;;5053420;28;20059;-69
2021/03/03 08:17:42;;;;;;;29.45;19.70;;;21.40;59.40;;;;;;5048697;28;20048;-69
2021/03/03 08:20:48;;;;;;;32.53;23.08;;;21.30;59.60;;;;;;5050545;28;20048;-70
2021/03/03 08:24:31;;;;;;;29.48;20.80;;;21.20;59.10;;;;;;5052651;28;20036;-70
2021/03/03 08:27:36;;;;;;;30.70;21.77;;;20.90;58.40;;;;;;5050389;28;20040;-69
2021/03/03 08:31:11;;;;;;;27.05;21.50;;;21.00;58.40;;;;;;5047368;28;20424;-70
2021/03/03 08:34:34;;;;;;;27.65;19.10;;;22.00;57.50;;;;;;5052946;28;20040;-69
2021/03/03 08:38:15;;;;;;;25.35;17.45;;;22.80;56.40;;;;;;5052917;28;20048;-69
2021/03/03 08:41:19;;;;;;;19.55;14.73;;;24.00;55.20;;;;;;5054396;28;20040;-69
2021/03/03 08:44:59;;;;;;;22.52;15.52;;;25.00;54.40;;;;;;5052941;28;20484;-69
2021/03/03 08:48:10;;;;;;;19.08;14.95;;;23.40;53.80;;;;;;5054512;28;20036;-69
2021/03/03 08:51:34;;;;;;;19.02;13.98;;;24.20;53.60;;;;;;5056570;28;20036;-69
2021/03/03 08:54:46;;;;;;;19.48;14.05;;;24.00;53.90;;;;;;5056929;28;20040;-69
2021/03/03 08:58:09;;;;;;;20.77;15.82;;;24.70;52.40;;;;;;5056619;28;20032;-69
2021/03/03 09:01:13;;;;;;;23.73;15.27;;;21.60;55.40;;;;;;5056321;28;20052;-69
2021/03/03 09:04:50;;;;;;;20.90;14.95;;;22.20;56.00;;;;;;5056570;28;20392;-69
2021/03/03 09:13:00;;;;;;;17.85;13.55;;;23.30;53.50;;;;;;5060421;28;20503;-69
2021/03/03 09:16:29;;;;;;;18.83;14.40;;;25.80;52.00;;;;;;5054598;28;20048;-69
2021/03/03 09:24:18;;;;;;;23.08;16.75;;;26.10;51.90;;;;;;5054810;28;20052;-70
2021/03/03 09:27:58;;;;;;;19.80;14.93;;;27.20;48.60;;;;;;5056355;28;20052;-69
2021/03/03 09:31:50;;;;;;;19.20;15.10;;;24.60;48.70;;;;;;5055829;28;20511;-69
2021/03/03 09:34:58;;;;;;;26.35;15.80;;;26.20;49.00;;;;;;5053107;28;20040;-69
2021/03/03 09:38:30;;;;;;;39.97;16.45;;;21.10;54.30;;;;;;5055507;28;20044;-69
2021/03/03 09:41:35;;;;;;;19.80;15.80;;;23.10;50.50;;;;;;5048233;28;20039;-70
2021/03/03 09:44:46;;;;;;;20.67;14.13;;;24.70;49.40;;;;;;5055651;28;20040;-69
2021/03/03 09:47:51;;;;;;;21.42;16.35;;;25.40;49.50;;;;;;5055037;28;20066;-70
2021/03/03 09:50:58;;;;;;;18.88;14.93;;;25.80;47.40;;;;;;5040592;28;20061;-70
2021/03/03 09:54:02;;;;;;;20.88;16.00;;;28.50;46.60;;;;;;5042882;28;20036;-71
2021/03/03 09:57:06;;;;;;;19.63;13.38;;;28.80;45.00;;;;;;5041479;28;20037;-70
2021/03/03 10:00:36;;;;;;;17.38;13.07;;;31.30;44.10;;;;;;5048754;28;20056;-70
2021/03/03 10:04:04;;;;;;;16.15;12.95;;;30.10;42.00;;;;;;5049901;28;20043;-70
2021/03/03 10:07:20;;;;;;;14.05;11.90;;;27.70;44.10;;;;;;5051470;28;20058;-70
2021/03/03 10:10:47;;;;;;;13.32;11.68;;;30.30;43.70;;;;;;5039743;28;20048;-70
2021/03/03 10:14:06;;;;;;;15.18;10.85;;;32.50;40.10;;;;;;5051123;28;20044;-70
2021/03/03 10:17:10;;;;;;;13.52;11.10;;;29.60;40.00;;;;;;5055097;28;20510;-70
2021/03/03 10:20:41;;;;;;;15.40;11.82;;;27.20;41.60;;;;;;5055085;28;20408;-70
2021/03/03 10:23:45;;;;;;;14.98;11.55;;;30.40;40.90;;;;;;5051842;28;20047;-70
2021/03/03 10:27:17;;;;;;;14.07;11.20;;;27.70;41.50;;;;;;5051499;28;20487;-69
2021/03/03 10:30:47;;;;;;;14.57;10.95;;;30.10;41.20;;;;;;5053125;28;20044;-70
2021/03/03 10:33:53;;;;;;;15.20;11.30;;;31.60;40.50;;;;;;5046512;28;20099;-70
2021/03/03 10:36:57;;;;;;;17.23;11.50;;;33.00;38.10;;;;;;5054385;28;20063;-70
2021/03/03 10:40:11;;;;;;;13.13;10.20;;;34.20;37.70;;;;;;5051093;28;20051;-70
2021/03/03 10:43:18;;;;;;;14.13;12.13;;;35.60;36.30;;;;;;5054127;28;20056;-70
2021/03/03 10:46:24;;;;;;;16.73;12.73;;;32.00;35.80;;;;;;5051445;28;20040;-70
2021/03/03 10:49:28;;;;;;;12.65;10.60;;;33.00;36.90;;;;;;5051924;28;20489;-70
2021/03/03 10:52:31;;;;;;;12.45;9.93;;;34.90;35.30;;;;;;5049865;28;20104;-70
2021/03/03 10:55:38;;;;;;;12.02;10.43;;;36.10;35.70;;;;;;5051536;28;20044;-68
2021/03/03 10:58:42;;;;;;;10.00;8.90;;;36.80;34.60;;;;;;5049136;28;20044;-68
2021/03/03 11:01:52;;;;;;;12.65;9.52;;;37.90;34.10;;;;;;5054121;28;20384;-68
2021/03/03 11:05:21;;;;;;;12.30;9.98;;;36.10;34.10;;;;;;5053758;28;20044;-70
2021/03/03 11:08:27;;;;;;;12.30;8.82;;;31.10;34.20;;;;;;5047560;28;20052;-70
2021/03/03 11:11:57;;;;;;;11.73;8.55;;;33.00;34.80;;;;;;5053653;28;20036;-70
2021/03/03 11:15:26;;;;;;;11.43;7.68;;;34.90;34.90;;;;;;5045882;28;20040;-68
2021/03/03 11:18:31;;;;;;;7.55;5.53;;;36.80;33.80;;;;;;5045697;28;20048;-68
2021/03/03 11:21:35;;;;;;;8.85;6.63;;;37.40;32.20;;;;;;5047301;28;20052;-68
2021/03/03 11:24:41;;;;;;;7.30;5.82;;;37.60;31.20;;;;;;5053572;28;20080;-68
2021/03/03 11:27:45;;;;;;;6.65;5.95;;;37.70;31.30;;;;;;5053664;28;20028;-68
2021/03/03 11:30:49;;;;;;;7.53;5.97;;;37.80;31.00;;;;;;5053792;28;20067;-70
2021/03/03 11:33:53;;;;;;;9.15;6.75;;;36.90;32.10;;;;;;5053699;28;20048;-68
2021/03/03 11:36:57;;;;;;;8.20;6.20;;;37.70;31.40;;;;;;5043080;28;20056;-70
2021/03/03 11:40:03;;;;;;;8.68;6.93;;;36.70;30.60;;;;;;5053142;28;20040;-70
2021/03/03 11:43:33;;;;;;;9.68;7.32;;;38.20;31.40;;;;;;5051672;28;20051;-70
2021/03/03 11:46:37;;;;;;;8.27;6.75;;;39.50;30.60;;;;;;5038496;28;20048;-68
2021/03/03 11:50:08;;;;;;;13.75;7.50;;;39.70;30.20;;;;;;5052693;28;20043;-70
2021/03/03 11:53:12;;;;;;;9.60;8.50;;;40.40;30.00;;;;;;5055260;28;20040;-70
2021/03/03 11:56:16;;;;;;;11.70;8.25;;;40.10;29.30;;;;;;5047063;28;20040;-70
2021/03/03 11:59:20;;;;;;;9.85;8.70;;;40.30;29.70;;;;;;5049243;28;20063;-70
2021/03/03 12:02:24;;;;;;;10.35;8.77;;;40.20;29.80;;;;;;5051584;28;20044;-70
2021/03/03 12:05:28;;;;;;;11.95;7.82;;;40.60;29.50;;;;;;5042207;28;20052;-70
2021/03/03 12:08:32;;;;;;;10.30;8.25;;;40.50;29.80;;;;;;5052578;28;20495;-70
2021/03/03 12:12:03;;;;;;;10.55;7.85;;;40.40;29.90;;;;;;5048890;28;20040;-70
2021/03/03 12:15:09;;;;;;;9.57;7.88;;;40.40;29.80;;;;;;5048647;28;20048;-70
2021/03/03 12:18:13;;;;;;;8.80;7.40;;;40.90;29.70;;;;;;5050307;28;20044;-70
2021/03/03 12:21:17;;;;;;;8.80;7.68;;;40.80;29.60;;;;;;5047923;28;20044;-70
2021/03/03 12:24:46;;;;;;;8.50;7.60;;;40.30;30.10;;;;;;5051351;28;20048;-70
2021/03/03 12:27:51;;;;;;;12.43;7.13;;;40.00;29.90;;;;;;5042424;28;20384;-70
2021/03/03 12:30:57;;;;;;;9.02;8.02;;;39.80;31.10;;;;;;5038226;28;20048;-70
2021/03/03 12:34:02;;;;;;;30.75;8.88;;;40.50;30.00;;;;;;5051980;28;20052;-69
2021/03/03 12:37:07;;;;;;;13.05;8.48;;;39.80;29.50;;;;;;5035811;28;20056;-69
2021/03/03 12:40:12;;;;;;;11.30;8.07;;;37.90;30.30;;;;;;5036822;28;20603;-69
2021/03/03 12:43:16;;;;;;;53.85;9.98;;;38.00;30.10;;;;;;5044747;28;20040;-68
2021/03/03 12:46:19;;;;;;;11.82;7.35;;;36.70;29.00;;;;;;5046921;28;20044;-68
2021/03/03 12:49:49;;;;;;;7.78;6.90;;;34.50;31.50;;;;;;5047734;28;20048;-68
2021/03/03 12:52:53;;;;;;;9.60;7.10;;;36.00;30.30;;;;;;5040391;28;20036;-68
2021/03/03 12:55:58;;;;;;;13.63;8.05;;;36.80;30.00;;;;;;5046457;28;20044;-69
2021/03/03 12:59:02;;;;;;;8.75;6.88;;;37.40;29.80;;;;;;5047465;28;20044;-69
2021/03/03 13:02:06;;;;;;;7.70;6.70;;;37.40;29.90;;;;;;5048002;28;20047;-70
2021/03/03 13:05:15;;;;;;;8.85;6.28;;;37.70;30.10;;;;;;5052016;28;20112;-70
2021/03/03 13:08:19;;;;;;;8.82;7.32;;;37.50;30.50;;;;;;5051358;28;20052;-69
2021/03/03 13:11:23;;;;;;;9.70;7.10;;;36.80;29.80;;;;;;5047125;28;20396;-69
2021/03/03 13:14:27;;;;;;;10.35;7.38;;;35.90;30.00;;;;;;5048529;28;20055;-69
2021/03/03 13:17:56;;;;;;;11.35;7.07;;;36.10;30.20;;;;;;5048250;28;20044;-69
2021/03/03 13:21:01;;;;;;;8.13;6.93;;;36.50;29.80;;;;;;5041641;28;20044;-69
2021/03/03 13:24:06;;;;;;;10.13;7.47;;;35.80;29.50;;;;;;5046616;28;20052;-69
2021/03/03 13:27:10;;;;;;;9.85;8.23;;;35.70;29.70;;;;;;5044581;28;20044;-69
2021/03/03 13:30:15;;;;;;;8.85;7.35;;;35.70;30.20;;;;;;5045440;28;20032;-69
2021/03/03 13:33:22;;;;;;;8.50;7.07;;;35.70;29.30;;;;;;5051498;28;20056;-70
2021/03/03 13:36:27;;;;;;;9.95;7.57;;;35.30;29.90;;;;;;5053501;28;20047;-70
2021/03/03 13:39:31;;;;;;;9.32;7.75;;;35.20;30.60;;;;;;5049236;28;20040;-69
2021/03/03 13:42:39;;;;;;;9.50;8.35;;;35.30;30.30;;;;;;5049342;28;20040;-70
2021/03/03 13:45:47;;;;;;;9.77;8.48;;;35.60;30.30;;;;;;5045617;28;20397;-70
2021/03/03 13:48:52;;;;;;;14.18;7.60;;;35.70;29.60;;;;;;5039550;28;20041;-70
2021/03/03 13:51:56;;;;;;;12.27;7.82;;;35.50;30.30;;;;;;5053543;28;20036;-70
2021/03/03 13:55:00;;;;;;;8.85;7.47;;;35.60;30.00;;;;;;5052175;28;20032;-69
2021/03/03 13:58:30;;;;;;;14.65;8.05;;;35.50;30.40;;;;;;5046137;28;20036;-70
2021/03/03 14:01:37;;;;;;;7.97;6.93;;;35.50;30.60;;;;;;5039726;28;20048;-70
2021/03/03 14:04:43;;;;;;;10.73;8.55;;;35.60;30.70;;;;;;5044701;28;20491;-69
2021/03/03 14:07:47;;;;;;;10.20;7.95;;;35.00;29.80;;;;;;5042012;28;20044;-69
2021/03/03 14:11:19;;;;;;;11.38;8.23;;;34.70;30.30;;;;;;5046959;28;20045;-69
2021/03/03 14:14:23;;;;;;;11.27;8.43;;;34.60;31.10;;;;;;5043705;28;20051;-69
2021/03/03 14:17:31;;;;;;;14.43;9.00;;;34.00;31.00;;;;;;5048604;28;20032;-69
2021/03/03 14:20:36;;;;;;;12.68;9.02;;;33.60;30.90;;;;;;5045055;28;20806;-69
2021/03/03 14:23:40;;;;;;;11.05;8.23;;;33.20;31.30;;;;;;5046196;28;20036;-69
2021/03/03 14:26:44;;;;;;;10.63;8.43;;;33.40;31.60;;;;;;5046810;28;20388;-69
2021/03/03 14:29:48;;;;;;;11.50;8.82;;;33.10;31.30;;;;;;5048717;28;20116;-69
2021/03/03 14:32:53;;;;;;;13.57;9.70;;;31.90;31.90;;;;;;5046963;28;20044;-69
2021/03/03 14:36:04;;;;;;;12.70;9.35;;;31.40;31.20;;;;;;5054141;28;20041;-69
2021/03/03 14:39:09;;;;;;;14.88;9.18;;;31.20;32.20;;;;;;5049470;28;20052;-69
2021/03/03 14:42:13;;;;;;;14.25;9.98;;;31.10;32.70;;;;;;5051072;28;20036;-69
2021/03/03 14:45:19;;;;;;;13.45;9.27;;;30.60;32.80;;;;;;5046070;28;20048;-69
2021/03/03 14:48:23;;;;;;;14.93;10.85;;;30.70;32.70;;;;;;5051591;28;20044;-69
2021/03/03 14:51:28;;;;;;;21.70;9.45;;;30.40;33.40;;;;;;5047685;28;20067;-69
2021/03/03 14:54:34;;;;;;;16.88;10.38;;;30.40;33.50;;;;;;5049119;28;20044;-69
2021/03/03 14:57:38;;;;;;;11.95;9.20;;;30.20;32.60;;;;;;5046666;28;20056;-69
2021/03/03 15:00:42;;;;;;;13.52;10.27;;;30.40;33.50;;;;;;5050497;28;20490;-69
2021/03/03 15:03:46;;;;;;;14.98;10.18;;;29.40;34.10;;;;;;5048072;28;20388;-69
2021/03/03 15:06:51;;;;;;;14.35;10.82;;;28.80;35.00;;;;;;5046383;28;20499;-69
2021/03/03 15:09:55;;;;;;;18.38;11.23;;;28.40;34.90;;;;;;5049356;28;20055;-69
2021/03/03 15:12:59;;;;;;;16.40;11.30;;;28.10;35.30;;;;;;5048654;28;20052;-69
2021/03/03 15:16:04;;;;;;;18.10;11.00;;;27.80;35.80;;;;;;5043699;28;20047;-69
2021/03/03 15:19:08;;;;;;;17.95;11.82;;;27.60;35.80;;;;;;5046929;28;20044;-70
2021/03/03 15:22:13;;;;;;;16.15;11.15;;;27.70;35.70;;;;;;5047113;28;20518;-71
2021/03/03 15:25:17;;;;;;;15.88;10.13;;;27.20;35.90;;;;;;5033632;28;20037;-70
2021/03/03 15:28:21;;;;;;;26.25;11.30;;;26.80;36.70;;;;;;5039627;28;20044;-70
2021/03/03 15:31:25;;;;;;;16.48;10.90;;;26.70;36.40;;;;;;5050154;28;20052;-70
2021/03/03 15:34:30;;;;;;;16.08;10.55;;;26.30;36.90;;;;;;5038607;28;20036;-70
2021/03/03 15:37:34;;;;;;;14.20;9.50;;;26.30;36.50;;;;;;5045271;28;20040;-70
2021/03/03 15:40:39;;;;;;;14.55;8.57;;;25.90;36.70;;;;;;5047162;28;20048;-70
2021/03/03 15:43:45;;;;;;;13.00;8.30;;;25.30;37.60;;;;;;5040989;28;20033;-70
2021/03/03 15:46:49;;;;;;;11.85;8.52;;;24.80;37.80;;;;;;5036282;28;20052;-70
2021/03/03 15:49:53;;;;;;;16.02;8.70;;;24.50;37.50;;;;;;5048195;28;20044;-70
2021/03/03 15:52:57;;;;;;;15.32;8.68;;;24.20;38.10;;;;;;5036145;28;20044;-70
2021/03/03 15:56:03;;;;;;;13.23;9.00;;;23.80;38.20;;;;;;5046288;28;20044;-69
2021/03/03 15:59:08;;;;;;;13.23;7.97;;;23.30;38.80;;;;;;5041988;28;20316;-69
2021/03/03 16:02:12;;;;;;;14.27;8.50;;;22.90;39.10;;;;;;5045276;28;20048;-69
2021/03/03 16:05:16;;;;;;;12.63;9.23;;;22.40;39.70;;;;;;5051102;28;20040;-69
2021/03/03 16:08:20;;;;;;;13.57;8.75;;;21.90;40.40;;;;;;5040734;28;20048;-69
2021/03/03 16:11:25;;;;;;;13.70;8.68;;;21.50;41.10;;;;;;5039179;28;20040;-69
2021/03/03 16:14:29;;;;;;;12.85;9.38;;;21.10;41.30;;;;;;5041389;28;20040;-69
2021/03/03 16:17:33;;;;;;;12.27;8.80;;;20.80;42.00;;;;;;5041306;28;20047;-69
2021/03/03 16:20:37;;;;;;;14.82;9.00;;;20.40;43.30;;;;;;5044975;28;20032;-69